Latest Weather Observations for Rottnest Island

IDW60801

Issued at 9:53 am WST Wednesday 16 January 2019 (issued every 10 minutes, with the page automatically refreshed every 10 minutes)

About weather observations | Map of weather stations | Latest weather observations for WA | Other Formats
Station Details ID: 009193 Name: ROTTNEST ISLAND Lat: -32.01 Lon: 115.50 Height: 43.1 m
Data from the previous 72 hours. | See also: Recent months at Rottnest Island
Date/Time
WST
Temp
°C
App
Temp
°C
Dew
Point
°C
Rel
Hum
%
Delta-T
°C
Wind Press
QNH
hPa
Press
MSL
hPa
Rain since
9am
mm
Dir  Spd
km/h
Gust
km/h
Spd
kts
Gust
kts
16/09:30am 20.1 16.6 12.3 61 4.4 SSE 22 28 12 15 1012.1 1011.9 0.0
16/09:00am 19.4 14.2 11.7 61 4.3 S 30 33 16 18 1012.3 1012.1 0.0
16/08:30am 19.0 13.2 12.7 67 3.5 S 35 41 19 22 1012.3 1012.1 0.0
16/08:00am 19.3 14.0 12.6 65 3.8 SSE 32 37 17 20 1012.4 1012.2 0.0
16/07:30am 18.7 13.4 12.5 67 3.5 SSE 32 41 17 22 1012.1 1011.9 0.0
16/07:00am 18.6 13.1 12.6 68 3.4 SSE 33 41 18 22 1012.0 1011.8 0.0
16/06:30am 18.3 12.5 12.7 70 3.1 SSE 35 41 19 22 1011.7 1011.5 0.0
16/06:00am 18.1 12.1 13.4 74 2.7 SSE 37 44 20 24 1011.1 1010.9 0.0
16/05:30am 17.8 11.1 13.3 75 2.5 SSE 41 50 22 27 1010.7 1010.5 0.0
16/05:00am 18.2 11.4 13.1 72 2.9 S 41 50 22 27 1010.7 1010.5 0.0
16/04:30am 18.2 11.8 13.1 72 2.9 S 39 46 21 25 1010.4 1010.2 0.0
16/04:00am 18.3 11.1 13.2 72 2.9 S 43 48 23 26 1010.1 1009.9 0.0
16/03:30am 18.4 12.0 13.1 71 3.0 S 39 48 21 26 1009.9 1009.7 0.0
16/03:00am 18.4 11.7 13.3 72 2.9 S 41 48 22 26 1009.8 1009.6 0.0
16/02:30am 18.8 12.1 13.4 71 3.1 S 41 50 22 27 1009.9 1009.7 0.0
16/02:00am 18.8 12.1 14.5 76 2.5 S 43 50 23 27 1009.7 1009.5 0.0
16/01:30am 18.5 10.4 14.4 77 2.4 S 50 61 27 33 1009.6 1009.4 0.0
16/01:00am 18.5 10.0 14.2 76 2.5 S 52 65 28 35 1009.8 1009.6 0.0
16/12:48am 18.7 10.7 14.6 77 2.4 S 50 69 27 37 1009.8 1009.6 0.0
16/12:30am 18.9 10.5 14.6 76 2.5 S 52 63 28 34 1009.8 1009.6 0.0
16/12:00am 18.9 11.0 14.8 77 2.4 S 50 61 27 33 1010.1 1009.9 0.0
 
Date/Time
WST
Temp
°C
App
Temp
°C
Dew
Point
°C
Rel
Hum
%
Delta-T
°C
Wind Press
QNH
hPa
Press
MSL
hPa
Rain since
9am
mm
Dir  Spd
km/h
Gust
km/h
Spd
kts
Gust
kts
15/11:30pm 18.6 11.1 14.9 79 2.2 S 48 61 26 33 1010.3 1010.1 0.0
15/11:00pm 18.8 11.2 14.7 77 2.4 SSW 48 61 26 33 1010.5 1010.3 0.0
15/10:30pm 19.0 11.9 14.9 77 2.4 SSW 46 56 25 30 1010.8 1010.6 0.0
15/10:00pm 19.2 11.8 14.2 73 2.9 SSW 46 59 25 32 1010.5 1010.3 0.0
15/09:30pm 19.2 11.7 14.9 76 2.5 SSW 48 57 26 31 1010.5 1010.3 0.0
15/09:00pm 19.2 12.0 14.7 75 2.6 SSW 46 59 25 32 1010.5 1010.3 0.0
15/08:30pm 19.1 12.0 15.0 77 2.4 SSW 46 59 25 32 1010.3 1010.1 0.0
15/08:00pm 18.8 12.0 14.9 78 2.3 SSW 44 54 24 29 1010.4 1010.2 0.0
15/07:30pm 18.9 12.2 14.6 76 2.5 SSW 43 56 23 30 1010.0 1009.8 0.0
15/07:00pm 19.0 12.1 14.5 75 2.6 SSW 44 56 24 30 1010.2 1010.0 0.0
15/06:30pm 19.6 12.3 14.6 73 2.9 SSW 46 57 25 31 1009.9 1009.7 0.0
15/06:00pm 19.8 12.9 14.6 72 3.0 SSW 44 56 24 30 1010.1 1009.9 0.0
15/05:30pm 20.2 13.2 14.3 69 3.4 SSW 44 56 24 30 1010.1 1009.9 0.0
15/05:00pm 20.4 13.6 14.3 68 3.6 SSW 43 56 23 30 1010.1 1009.9 0.0
15/04:30pm 20.9 14.9 14.5 67 3.7 SSW 39 54 21 29 1010.3 1010.1 0.0
15/04:00pm 21.1 14.4 14.5 66 3.9 SSW 43 52 23 28 1010.3 1010.1 0.0
15/03:30pm 20.8 13.9 14.0 65 3.9 SSW 43 57 23 31 1010.2 1010.0 0.0
15/03:00pm 21.7 14.9 14.4 63 4.3 SSW 43 57 23 31 1010.6 1010.4 0.0
15/02:30pm 21.4 14.4 14.3 64 4.2 SSW 44 54 24 29 1010.6 1010.4 0.0
15/02:00pm 21.8 14.3 13.9 61 4.6 SSW 46 56 25 30 1010.8 1010.6 0.0
15/01:30pm 22.1 14.9 13.7 59 4.9 SSW 44 54 24 29 1011.0 1010.8 0.0
15/01:00pm 22.7 16.4 14.5 60 4.8 SSW 41 50 22 27 1011.3 1011.1 0.0
15/12:30pm 21.5 15.0 12.9 58 4.9 SSW 39 48 21 26 1011.6 1011.4 0.0
15/12:00pm 21.9 16.1 12.7 56 5.2 SSW 35 41 19 22 1011.8 1011.6 0.0
15/11:30am 21.2 15.7 12.3 57 5.0 SSW 33 39 18 21 1012.2 1012.0 0.0
15/11:00am 20.8 16.0 11.7 56 5.1 S 28 35 15 19 1012.4 1012.2 0.0
15/10:30am 21.1 16.5 12.3 57 5.0 S 28 32 15 17 1012.7 1012.5 0.0
15/10:00am 20.6 17.1 12.3 59 4.7 S 22 28 12 15 1013.1 1012.9 0.0
15/09:30am 19.7 16.4 11.5 59 4.5 SSE 20 26 11 14 1013.2 1013.0 0.0
15/09:00am 20.3 16.9 12.5 61 4.4 SSE 22 28 12 15 1013.3 1013.1 0.0
15/08:30am 18.8 15.4 11.1 61 4.2 SE 20 28 11 15 1013.5 1013.3 0.0
15/08:00am 18.6 14.8 11.2 62 4.0 SE 22 28 12 15 1013.4 1013.2 0.0
15/07:30am 18.2 14.1 11.3 64 3.8 SE 24 30 13 16 1013.3 1013.1 0.0
15/07:00am 18.5 15.1 11.3 63 3.9 SE 20 35 11 19 1013.4 1013.2 0.0
15/06:30am 17.9 13.5 11.7 67 3.4 SE 26 35 14 19 1012.8 1012.6 0.0
15/06:00am 17.6 12.1 11.9 69 3.1 SE 32 37 17 20 1012.3 1012.1 0.0
15/05:30am 17.7 12.5 11.5 67 3.4 SSE 30 39 16 21 1011.7 1011.5 0.0
15/05:00am 18.3 12.9 12.7 70 3.1 SSE 33 41 18 22 1011.2 1011.0 0.0
15/04:30am 18.4 12.3 11.9 66 3.6 SSE 35 44 19 24 1011.2 1011.0 0.0
15/04:00am 18.6 12.7 12.4 67 3.5 S 35 41 19 22 1010.8 1010.6 0.0
15/03:30am 18.8 12.9 12.5 67 3.5 S 35 41 19 22 1010.9 1010.7 0.0
15/03:00am 18.7 13.1 13.3 71 3.1 S 35 43 19 23 1010.9 1010.7 0.0
15/02:30am 19.0 12.5 14.1 73 2.8 S 41 48 22 26 1010.8 1010.6 0.0
15/02:00am 18.9 12.1 14.2 74 2.7 S 43 50 23 27 1010.9 1010.7 0.0
15/01:30am 19.1 11.6 13.9 72 3.0 S 46 52 25 28 1010.9 1010.7 0.0
15/01:00am 19.3 11.9 14.1 72 3.0 S 46 59 25 32 1011.0 1010.8 0.0
15/12:30am 18.9 11.8 15.0 78 2.3 S 46 56 25 30 1011.1 1010.9 0.0
15/12:00am 18.6 11.7 14.5 77 2.4 S 44 57 24 31 1011.2 1011.0 0.0
 
Date/Time
WST
Temp
°C
App
Temp
°C
Dew
Point
°C
Rel
Hum
%
Delta-T
°C
Wind Press
QNH
hPa
Press
MSL
hPa
Rain since
9am
mm
Dir  Spd
km/h
Gust
km/h
Spd
kts
Gust
kts
14/11:30pm 18.6 10.9 14.3 76 2.5 S 48 59 26 32 1011.7 1011.5 0.0
14/11:00pm 18.7 10.5 14.0 74 2.7 S 50 63 27 34 1011.7 1011.5 0.0
14/10:30pm 19.0 10.9 14.3 74 2.7 S 50 61 27 33 1011.8 1011.6 0.0
14/10:00pm 19.0 11.6 14.1 73 2.8 S 46 61 25 33 1012.1 1011.9 0.0
14/09:30pm 19.3 11.2 14.3 73 2.9 S 50 63 27 34 1011.8 1011.6 0.0
14/09:06pm 19.1 11.9 14.8 76 2.5 S 46 65 25 35 1011.8 1011.6 0.0
14/09:00pm 19.3 12.8 15.6 79 2.2 SSW 44 57 24 31 1012.2 1012.0 0.0
14/08:30pm 19.1 12.0 15.0 77 2.4 SSW 46 57 25 31 1012.0 1011.8 0.0
14/08:00pm 19.0 12.6 15.3 79 2.2 SSW 43 52 23 28 1012.1 1011.9 0.0
14/07:30pm 18.8 12.6 14.9 78 2.3 SSW 41 52 22 28 1012.0 1011.8 0.0
14/07:00pm 19.5 13.4 15.2 76 2.5 SSW 41 52 22 28 1011.7 1011.5 0.0
14/06:30pm 20.0 13.5 15.2 74 2.8 SSW 43 54 23 29 1011.4 1011.2 0.0
14/06:00pm 20.2 14.0 15.0 72 3.1 SSW 41 56 22 30 1011.3 1011.1 0.0
14/05:30pm 20.3 13.0 14.4 69 3.4 SSW 46 56 25 30 1011.2 1011.0 0.0
14/05:00pm 20.7 14.0 14.6 68 3.6 SSW 43 54 23 29 1011.1 1010.9 0.0
14/04:30pm 21.8 16.1 15.2 66 3.9 SSW 39 50 21 27 1011.3 1011.1 0.0
14/04:00pm 21.7 15.5 14.8 65 4.1 SSW 41 50 22 27 1011.4 1011.2 0.0
14/03:30pm 21.9 15.6 14.5 63 4.4 SW 41 50 22 27 1011.4 1011.2 0.0
14/03:00pm 22.7 17.8 15.3 63 4.4 SSW 35 46 19 25 1011.9 1011.7 0.0
14/02:30pm 22.0 16.6 15.1 65 4.1 SSW 37 44 20 24 1012.0 1011.8 0.0
14/02:00pm 22.4 17.6 15.5 65 4.1 SSW 35 43 19 23 1012.2 1012.0 0.0
14/01:30pm 23.0 18.1 16.3 66 4.1 SSW 37 46 20 25 1012.5 1012.3 0.0
14/01:00pm 21.8 16.5 15.2 66 3.9 SSW 37 46 20 25 1012.6 1012.4 0.0
14/12:30pm 21.7 16.2 14.8 65 4.1 SSW 37 44 20 24 1012.9 1012.7 0.0
14/12:00pm 21.7 16.4 15.3 67 3.8 SSW 37 43 20 23 1013.1 1012.9 0.0
14/11:30am 21.9 17.1 15.7 68 3.7 SSW 35 41 19 22 1013.4 1013.2 0.0
14/11:00am 22.4 18.3 16.0 67 3.9 S 32 39 17 21 1013.6 1013.4 0.0
14/10:30am 22.4 18.3 16.0 67 3.9 S 32 37 17 20 1013.8 1013.6 0.0
14/10:00am 21.7 17.1 15.1 66 3.9 S 33 39 18 21 1013.8 1013.6 0.0
14/09:30am 21.4 16.7 14.8 66 3.9 S 33 39 18 21 1014.0 1013.8 0.0
14/09:00am 21.3 16.7 15.2 68 3.6 S 33 39 18 21 1014.2 1014.0 0.0
14/08:30am 21.4 17.3 15.9 71 3.3 SSE 32 37 17 20 1014.1 1013.9 0.0
14/08:00am 21.4 17.7 16.1 72 3.2 SSE 30 35 16 19 1014.3 1014.1 0.0
14/07:30am 20.9 17.3 16.3 75 2.8 SSE 30 35 16 19 1014.4 1014.2 0.0
14/07:00am 20.7 17.9 16.3 76 2.7 S 26 32 14 17 1014.5 1014.3 0.0
14/06:30am 20.2 17.0 16.2 78 2.4 S 28 33 15 18 1014.3 1014.1 0.0
14/06:00am 19.6 16.4 16.3 81 2.0 S 28 32 15 17 1014.2 1014.0 0.0
14/05:30am 19.6 16.9 16.6 83 1.8 SSE 26 32 14 17 1014.0 1013.8 0.0
14/05:00am 19.5 17.1 16.5 83 1.8 SSE 24 32 13 17 1013.7 1013.5 0.0
14/04:30am 19.7 17.1 16.9 84 1.7 SSE 26 30 14 16 1013.5 1013.3 0.0
14/04:00am 19.8 17.8 17.4 86 1.5 SSE 24 30 13 16 1013.4 1013.2 0.0
14/03:30am 19.7 17.4 17.5 87 1.3 SSE 26 32 14 17 1013.2 1013.0 0.0
14/03:00am 19.7 16.5 17.3 86 1.5 S 30 35 16 19 1013.4 1013.2 0.0
14/02:30am 19.6 16.0 17.7 89 1.2 S 33 39 18 21 1013.3 1013.1 0.0
14/02:00am 19.4 15.4 17.7 90 1.0 S 35 44 19 24 1013.5 1013.3 0.0
14/01:30am 19.3 14.9 17.6 90 1.0 S 37 46 20 25 1013.7 1013.5 0.0
14/01:00am 19.1 15.0 17.4 90 1.0 S 35 44 19 24 1013.9 1013.7 0.0
14/12:30am 19.2 13.3 17.2 88 1.2 S 44 54 24 29 1013.9 1013.7 0.0
14/12:00am 19.3 13.5 16.9 86 1.5 S 43 56 23 30 1014.0 1013.8 0.0
 
Date/Time
WST
Temp
°C
App
Temp
°C
Dew
Point
°C
Rel
Hum
%
Delta-T
°C
Wind Press
QNH
hPa
Press
MSL
hPa
Rain since
9am
mm
Dir  Spd
km/h
Gust
km/h
Spd
kts
Gust
kts
13/11:30pm 19.6 13.3 17.0 85 1.6 S 46 56 25 30 1014.1 1013.9 0.0
13/11:00pm 19.7 14.0 17.3 86 1.5 S 43 54 23 29 1014.3 1014.1 0.0
13/10:30pm 19.8 13.8 17.0 84 1.7 SSW 44 59 24 32 1014.2 1014.0 0.0
13/10:00pm 19.9 14.0 17.1 84 1.7 SSW 44 61 24 33 1014.2 1014.0 0.0
13/09:30pm 20.1 13.9 17.3 84 1.7 SSW 46 56 25 30 1014.2 1014.0 0.0
13/09:00pm 20.1 14.4 17.3 84 1.7 SSW 43 54 23 29 1014.2 1014.0 0.0
13/08:30pm 20.1 14.9 17.5 85 1.6 SSW 41 52 22 28 1013.8 1013.6 0.0
13/08:00pm 20.0 14.5 17.6 86 1.5 SSW 43 54 23 29 1013.9 1013.7 0.0
13/07:30pm 20.0 14.6 17.8 87 1.4 SSW 43 54 23 29 1013.7 1013.5 0.0
13/07:00pm 20.1 14.3 17.3 84 1.7 SSW 44 54 24 29 1013.3 1013.1 0.0
13/06:30pm 20.5 15.3 17.5 83 1.8 SSW 41 52 22 28 1013.5 1013.3 0.0
13/06:00pm 21.2 16.1 17.8 81 2.1 SSW 41 50 22 27 1013.2 1013.0 0.0
13/05:30pm 21.7 17.0 17.7 78 2.5 SSW 39 54 21 29 1012.9 1012.7 0.0
13/05:00pm 21.8 16.4 17.8 78 2.5 SSW 43 52 23 28 1012.8 1012.6 0.0
13/04:30pm 22.1 17.3 17.5 75 2.8 SSW 39 54 21 29 1012.9 1012.7 0.0
13/04:00pm 22.2 16.7 17.6 75 2.9 SSW 43 56 23 30 1012.7 1012.5 0.0
13/03:30pm 22.7 17.1 17.8 74 3.1 SW 44 54 24 29 1013.0 1012.8 0.0
13/03:00pm 22.9 17.5 17.1 70 3.6 SSW 41 54 22 29 1013.0 1012.8 0.0
13/02:30pm 22.9 18.0 17.4 71 3.4 SSW 39 46 21 25 1013.5 1013.3 0.0
13/02:00pm 22.9 17.2 17.1 70 3.6 SSW 43 52 23 28 1013.3 1013.1 0.0
13/01:30pm 23.2 17.8 17.0 68 3.8 SSW 41 50 22 27 1013.5 1013.3 0.0
13/01:00pm 23.2 18.5 17.7 71 3.4 SSW 39 46 21 25 1013.9 1013.7 0.0
13/12:30pm 22.9 18.7 17.1 70 3.6 SSW 35 43 19 23 1013.9 1013.7 0.0
13/12:00pm 22.6 16.7 16.6 69 3.7 SSW 43 50 23 27 1013.8 1013.6 0.0
13/11:30am 22.4 16.8 16.4 69 3.6 SSW 41 50 22 27 1013.8 1013.6 0.0
13/11:00am 22.4 17.3 16.7 70 3.5 SSW 39 46 21 25 1014.2 1014.0 0.0
13/10:30am 22.5 16.9 16.5 69 3.7 S 41 48 22 26 1014.3 1014.1 0.0
13/10:00am 21.3 15.4 15.6 70 3.4 S 41 50 22 27 1014.0 1013.8 0.0

Other Formats:

Comma delimited format used in spreadsheet applications
http://www.bom.gov.au/fwo/IDW60801/IDW60801.94602.axf

JavaScript Object Notation format (JSON) in row-major order
http://www.bom.gov.au/fwo/IDW60801/IDW60801.94602.json